sensor_id;sensor_type;location;lat;lon;timestamp;temperature;humidity
20973;DHT22;10645;52.370;13.314;2022-12-29T00:02:26;7.60;99.90
20973;DHT22;10645;52.370;13.314;2022-12-29T00:04:52;7.60;99.90
20973;DHT22;10645;52.370;13.314;2022-12-29T00:07:18;7.60;99.90
20973;DHT22;10645;52.370;13.314;2022-12-29T00:09:44;7.60;99.90
20973;DHT22;10645;52.370;13.314;2022-12-29T00:12:10;7.60;99.90
20973;DHT22;10645;52.370;13.314;2022-12-29T00:14:36;7.60;99.90
20973;DHT22;10645;52.370;13.314;2022-12-29T00:17:21;7.70;99.90
20973;DHT22;10645;52.370;13.314;2022-12-29T00:19:47;7.70;99.90
20973;DHT22;10645;52.370;13.314;2022-12-29T00:22:32;7.70;99.90
20973;DHT22;10645;52.370;13.314;2022-12-29T00:25:16;7.70;99.90
20973;DHT22;10645;52.370;13.314;2022-12-29T00:28:01;7.70;99.90
20973;DHT22;10645;52.370;13.314;2022-12-29T00:30:46;7.80;99.90
20973;DHT22;10645;52.370;13.314;2022-12-29T00:33:32;7.80;99.90
20973;DHT22;10645;52.370;13.314;2022-12-29T00:36:23;7.80;99.90
20973;DHT22;10645;52.370;13.314;2022-12-29T00:38:54;7.80;99.90
20973;DHT22;10645;52.370;13.314;2022-12-29T00:41:39;7.80;99.90
20973;DHT22;10645;52.370;13.314;2022-12-29T00:44:24;7.80;99.90
20973;DHT22;10645;52.370;13.314;2022-12-29T00:46:50;7.80;99.90
20973;DHT22;10645;52.370;13.314;2022-12-29T00:49:16;7.80;99.90
20973;DHT22;10645;52.370;13.314;2022-12-29T00:52:06;7.80;99.90
20973;DHT22;10645;52.370;13.314;2022-12-29T00:54:34;7.80;99.90
20973;DHT22;10645;52.370;13.314;2022-12-29T00:57:01;7.70;99.90
20973;DHT22;10645;52.370;13.314;2022-12-29T00:59:28;7.70;99.90
20973;DHT22;10645;52.370;13.314;2022-12-29T01:01:56;7.80;99.90
20973;DHT22;10645;52.370;13.314;2022-12-29T01:04:24;7.70;99.90
20973;DHT22;10645;52.370;13.314;2022-12-29T01:06:51;7.80;99.90
20973;DHT22;10645;52.370;13.314;2022-12-29T01:09:18;7.70;99.90
20973;DHT22;10645;52.370;13.314;2022-12-29T01:12:04;7.80;99.90
20973;DHT22;10645;52.370;13.314;2022-12-29T01:14:30;7.80;99.90
20973;DHT22;10645;52.370;13.314;2022-12-29T01:16:57;7.80;99.90
20973;DHT22;10645;52.370;13.314;2022-12-29T01:19:23;7.80;99.90
20973;DHT22;10645;52.370;13.314;2022-12-29T01:21:50;7.80;99.90
20973;DHT22;10645;52.370;13.314;2022-12-29T01:24:17;7.80;99.90
20973;DHT22;10645;52.370;13.314;2022-12-29T01:26:44;7.80;99.90
20973;DHT22;10645;52.370;13.314;2022-12-29T01:29:10;7.80;99.90
20973;DHT22;10645;52.370;13.314;2022-12-29T01:31:36;7.80;99.90
20973;DHT22;10645;52.370;13.314;2022-12-29T01:34:03;7.80;99.90
20973;DHT22;10645;52.370;13.314;2022-12-29T01:36:29;7.80;99.90
20973;DHT22;10645;52.370;13.314;2022-12-29T01:38:56;7.80;99.90
20973;DHT22;10645;52.370;13.314;2022-12-29T01:41:22;7.70;99.90
20973;DHT22;10645;52.370;13.314;2022-12-29T01:43:54;7.70;99.90
20973;DHT22;10645;52.370;13.314;2022-12-29T01:49:05;7.80;99.90
20973;DHT22;10645;52.370;13.314;2022-12-29T01:51:48;7.80;99.90
20973;DHT22;10645;52.370;13.314;2022-12-29T01:54:42;7.80;99.90
20973;DHT22;10645;52.370;13.314;2022-12-29T01:57:20;7.80;99.90
20973;DHT22;10645;52.370;13.314;2022-12-29T01:59:55;7.80;99.90
20973;DHT22;10645;52.370;13.314;2022-12-29T02:02:21;7.80;99.90
20973;DHT22;10645;52.370;13.314;2022-12-29T02:04:47;7.80;99.90
20973;DHT22;10645;52.370;13.314;2022-12-29T02:07:19;7.80;99.90
20973;DHT22;10645;52.370;13.314;2022-12-29T02:09:49;7.80;99.90
20973;DHT22;10645;52.370;13.314;2022-12-29T02:12:20;7.90;99.90
20973;DHT22;10645;52.370;13.314;2022-12-29T02:14:47;7.90;99.90
20973;DHT22;10645;52.370;13.314;2022-12-29T02:17:32;7.90;99.90
20973;DHT22;10645;52.370;13.314;2022-12-29T02:20:28;7.90;99.90
20973;DHT22;10645;52.370;13.314;2022-12-29T02:23:28;8.00;99.90
20973;DHT22;10645;52.370;13.314;2022-12-29T02:29:14;8.00;99.90
20973;DHT22;10645;52.370;13.314;2022-12-29T02:31:55;8.10;99.90
20973;DHT22;10645;52.370;13.314;2022-12-29T02:34:47;8.10;99.90
20973;DHT22;10645;52.370;13.314;2022-12-29T02:40:00;8.30;99.90
20973;DHT22;10645;52.370;13.314;2022-12-29T02:45:16;8.40;99.90
20973;DHT22;10645;52.370;13.314;2022-12-29T02:48:00;8.40;99.90
20973;DHT22;10645;52.370;13.314;2022-12-29T02:50:35;8.40;99.90
20973;DHT22;10645;52.370;13.314;2022-12-29T02:53:06;8.40;99.90
20973;DHT22;10645;52.370;13.314;2022-12-29T02:55:34;8.40;99.90
20973;DHT22;10645;52.370;13.314;2022-12-29T02:58:20;8.40;99.90
20973;DHT22;10645;52.370;13.314;2022-12-29T03:03:44;8.50;99.90
20973;DHT22;10645;52.370;13.314;2022-12-29T03:06:44;8.50;99.90
20973;DHT22;10645;52.370;13.314;2022-12-29T03:12:48;8.60;99.90
20973;DHT22;10645;52.370;13.314;2022-12-29T03:15:43;8.60;99.90
20973;DHT22;10645;52.370;13.314;2022-12-29T03:18:44;8.60;99.90
20973;DHT22;10645;52.370;13.314;2022-12-29T03:21:36;8.60;99.90
20973;DHT22;10645;52.370;13.314;2022-12-29T03:24:22;8.70;99.90
20973;DHT22;10645;52.370;13.314;2022-12-29T03:26:49;8.70;99.90
20973;DHT22;10645;52.370;13.314;2022-12-29T03:29:18;8.70;99.90
20973;DHT22;10645;52.370;13.314;2022-12-29T03:31:49;8.70;99.90
20973;DHT22;10645;52.370;13.314;2022-12-29T03:34:19;8.70;99.90
20973;DHT22;10645;52.370;13.314;2022-12-29T03:36:53;8.70;99.90
20973;DHT22;10645;52.370;13.314;2022-12-29T03:39:22;8.70;99.90
20973;DHT22;10645;52.370;13.314;2022-12-29T03:41:52;8.80;99.90
20973;DHT22;10645;52.370;13.314;2022-12-29T03:44:21;8.80;99.90
20973;DHT22;10645;52.370;13.314;2022-12-29T03:46:56;8.80;99.90
20973;DHT22;10645;52.370;13.314;2022-12-29T03:49:22;8.80;99.90
20973;DHT22;10645;52.370;13.314;2022-12-29T03:51:50;8.80;99.90
20973;DHT22;10645;52.370;13.314;2022-12-29T03:54:16;8.80;99.90
20973;DHT22;10645;52.370;13.314;2022-12-29T03:56:42;8.80;99.90
20973;DHT22;10645;52.370;13.314;2022-12-29T03:59:08;8.80;99.90
20973;DHT22;10645;52.370;13.314;2022-12-29T04:01:38;8.90;99.90
20973;DHT22;10645;52.370;13.314;2022-12-29T04:04:05;8.90;99.90
20973;DHT22;10645;52.370;13.314;2022-12-29T04:06:31;8.90;99.90
20973;DHT22;10645;52.370;13.314;2022-12-29T04:09:01;8.90;99.90
20973;DHT22;10645;52.370;13.314;2022-12-29T04:11:30;8.90;99.90
20973;DHT22;10645;52.370;13.314;2022-12-29T04:13:56;8.90;99.90
20973;DHT22;10645;52.370;13.314;2022-12-29T04:16:24;8.90;99.90
20973;DHT22;10645;52.370;13.314;2022-12-29T04:18:50;8.90;99.90
20973;DHT22;10645;52.370;13.314;2022-12-29T04:21:17;9.00;99.90
20973;DHT22;10645;52.370;13.314;2022-12-29T04:23:43;9.00;99.90
20973;DHT22;10645;52.370;13.314;2022-12-29T04:26:10;9.00;99.90
20973;DHT22;10645;52.370;13.314;2022-12-29T04:28:55;9.10;99.90
20973;DHT22;10645;52.370;13.314;2022-12-29T04:31:37;9.10;99.90
20973;DHT22;10645;52.370;13.314;2022-12-29T04:34:04;9.10;99.90
20973;DHT22;10645;52.370;13.314;2022-12-29T04:36:30;9.10;99.90
20973;DHT22;10645;52.370;13.314;2022-12-29T04:38:57;9.10;99.90
20973;DHT22;10645;52.370;13.314;2022-12-29T04:41:23;9.10;99.90
20973;DHT22;10645;52.370;13.314;2022-12-29T04:43:49;9.10;99.90
20973;DHT22;10645;52.370;13.314;2022-12-29T04:46:34;9.10;99.90
20973;DHT22;10645;52.370;13.314;2022-12-29T04:49:04;9.20;99.90
20973;DHT22;10645;52.370;13.314;2022-12-29T04:51:52;9.20;99.90
20973;DHT22;10645;52.370;13.314;2022-12-29T04:54:19;9.20;99.90
20973;DHT22;10645;52.370;13.314;2022-12-29T04:56:50;9.30;99.90
20973;DHT22;10645;52.370;13.314;2022-12-29T04:59:17;9.30;99.90
20973;DHT22;10645;52.370;13.314;2022-12-29T05:01:45;9.30;99.90
20973;DHT22;10645;52.370;13.314;2022-12-29T05:04:11;9.30;99.90
20973;DHT22;10645;52.370;13.314;2022-12-29T05:06:37;9.20;99.90
20973;DHT22;10645;52.370;13.314;2022-12-29T05:09:03;9.30;99.90
20973;DHT22;10645;52.370;13.314;2022-12-29T05:11:29;9.20;99.90
20973;DHT22;10645;52.370;13.314;2022-12-29T05:13:57;9.30;99.90
20973;DHT22;10645;52.370;13.314;2022-12-29T05:16:23;9.30;99.90
20973;DHT22;10645;52.370;13.314;2022-12-29T05:18:49;9.30;99.90
20973;DHT22;10645;52.370;13.314;2022-12-29T05:21:16;9.30;99.90
20973;DHT22;10645;52.370;13.314;2022-12-29T05:23:43;9.30;99.90
20973;DHT22;10645;52.370;13.314;2022-12-29T05:26:09;9.30;99.90
20973;DHT22;10645;52.370;13.314;2022-12-29T05:28:56;9.40;99.90
20973;DHT22;10645;52.370;13.314;2022-12-29T05:31:22;9.50;99.90
20973;DHT22;10645;52.370;13.314;2022-12-29T05:33:48;9.50;99.90
20973;DHT22;10645;52.370;13.314;2022-12-29T05:36:14;9.50;99.90
20973;DHT22;10645;52.370;13.314;2022-12-29T05:38:45;9.50;99.90
20973;DHT22;10645;52.370;13.314;2022-12-29T05:41:12;9.60;99.90
20973;DHT22;10645;52.370;13.314;2022-12-29T05:43:57;9.60;99.90
20973;DHT22;10645;52.370;13.314;2022-12-29T05:46:41;9.70;99.90
20973;DHT22;10645;52.370;13.314;2022-12-29T05:49:17;9.80;99.90
20973;DHT22;10645;52.370;13.314;2022-12-29T05:52:01;9.80;99.90
20973;DHT22;10645;52.370;13.314;2022-12-29T05:54:28;9.80;99.90
20973;DHT22;10645;52.370;13.314;2022-12-29T05:56:55;9.90;99.90
20973;DHT22;10645;52.370;13.314;2022-12-29T05:59:21;9.90;99.90
20973;DHT22;10645;52.370;13.314;2022-12-29T06:01:48;10.00;99.90
20973;DHT22;10645;52.370;13.314;2022-12-29T06:04:14;10.00;99.90
20973;DHT22;10645;52.370;13.314;2022-12-29T06:06:40;10.00;99.90
20973;DHT22;10645;52.370;13.314;2022-12-29T06:09:11;9.90;99.90
20973;DHT22;10645;52.370;13.314;2022-12-29T06:11:37;9.90;99.90
20973;DHT22;10645;52.370;13.314;2022-12-29T06:14:03;9.90;99.90
20973;DHT22;10645;52.370;13.314;2022-12-29T06:16:29;9.90;99.90
20973;DHT22;10645;52.370;13.314;2022-12-29T06:18:58;9.90;99.90
20973;DHT22;10645;52.370;13.314;2022-12-29T06:21:24;9.90;99.90
20973;DHT22;10645;52.370;13.314;2022-12-29T06:23:50;10.00;99.90
20973;DHT22;10645;52.370;13.314;2022-12-29T06:26:16;9.90;99.90
20973;DHT22;10645;52.370;13.314;2022-12-29T06:28:44;10.00;99.90
20973;DHT22;10645;52.370;13.314;2022-12-29T06:31:11;10.00;99.90
20973;DHT22;10645;52.370;13.314;2022-12-29T06:33:37;10.00;99.90
20973;DHT22;10645;52.370;13.314;2022-12-29T06:36:04;10.00;99.90
20973;DHT22;10645;52.370;13.314;2022-12-29T06:38:30;10.10;99.90
20973;DHT22;10645;52.370;13.314;2022-12-29T06:40:58;10.10;99.90
20973;DHT22;10645;52.370;13.314;2022-12-29T06:43:44;10.20;99.90
20973;DHT22;10645;52.370;13.314;2022-12-29T06:46:23;10.10;99.90
20973;DHT22;10645;52.370;13.314;2022-12-29T06:48:49;10.10;99.90
20973;DHT22;10645;52.370;13.314;2022-12-29T06:51:15;10.10;99.90
20973;DHT22;10645;52.370;13.314;2022-12-29T06:53:41;10.00;99.90
20973;DHT22;10645;52.370;13.314;2022-12-29T06:56:08;10.00;99.90
20973;DHT22;10645;52.370;13.314;2022-12-29T06:58:34;9.90;99.90
20973;DHT22;10645;52.370;13.314;2022-12-29T07:01:00;9.90;99.90
20973;DHT22;10645;52.370;13.314;2022-12-29T07:03:26;9.80;99.90
20973;DHT22;10645;52.370;13.314;2022-12-29T07:05:52;9.90;99.90
20973;DHT22;10645;52.370;13.314;2022-12-29T07:08:18;9.80;99.90
20973;DHT22;10645;52.370;13.314;2022-12-29T07:10:44;9.80;99.90
20973;DHT22;10645;52.370;13.314;2022-12-29T07:13:11;9.80;99.90
20973;DHT22;10645;52.370;13.314;2022-12-29T07:15:37;9.80;99.90
20973;DHT22;10645;52.370;13.314;2022-12-29T07:18:03;9.80;99.90
20973;DHT22;10645;52.370;13.314;2022-12-29T07:20:30;9.70;99.90
20973;DHT22;10645;52.370;13.314;2022-12-29T07:22:56;9.70;99.90
20973;DHT22;10645;52.370;13.314;2022-12-29T07:25:22;9.80;99.90
20973;DHT22;10645;52.370;13.314;2022-12-29T07:27:49;9.70;99.90
20973;DHT22;10645;52.370;13.314;2022-12-29T07:30:15;9.70;99.90
20973;DHT22;10645;52.370;13.314;2022-12-29T07:32:41;9.70;99.90
20973;DHT22;10645;52.370;13.314;2022-12-29T07:35:08;9.80;99.90
20973;DHT22;10645;52.370;13.314;2022-12-29T07:37:34;9.80;99.90
20973;DHT22;10645;52.370;13.314;2022-12-29T07:40:01;9.70;99.90
20973;DHT22;10645;52.370;13.314;2022-12-29T07:42:27;9.70;99.90
20973;DHT22;10645;52.370;13.314;2022-12-29T07:44:54;9.70;99.90
20973;DHT22;10645;52.370;13.314;2022-12-29T07:47:26;9.70;99.90
20973;DHT22;10645;52.370;13.314;2022-12-29T07:49:52;9.70;99.90
20973;DHT22;10645;52.370;13.314;2022-12-29T07:52:18;9.70;99.90
20973;DHT22;10645;52.370;13.314;2022-12-29T07:54:44;9.80;99.90
20973;DHT22;10645;52.370;13.314;2022-12-29T07:57:11;9.80;99.90
20973;DHT22;10645;52.370;13.314;2022-12-29T07:59:37;9.80;99.90
20973;DHT22;10645;52.370;13.314;2022-12-29T08:02:03;9.90;99.90
20973;DHT22;10645;52.370;13.314;2022-12-29T08:04:29;9.90;99.90
20973;DHT22;10645;52.370;13.314;2022-12-29T08:06:55;9.90;99.90
20973;DHT22;10645;52.370;13.314;2022-12-29T08:09:21;10.00;99.90
20973;DHT22;10645;52.370;13.314;2022-12-29T08:11:47;10.00;99.90
20973;DHT22;10645;52.370;13.314;2022-12-29T08:14:13;10.00;99.90
20973;DHT22;10645;52.370;13.314;2022-12-29T08:16:39;10.10;99.90
20973;DHT22;10645;52.370;13.314;2022-12-29T08:19:05;10.10;99.90
20973;DHT22;10645;52.370;13.314;2022-12-29T08:21:31;10.20;99.90
20973;DHT22;10645;52.370;13.314;2022-12-29T08:23:57;10.30;99.90
20973;DHT22;10645;52.370;13.314;2022-12-29T08:26:24;10.30;99.90
20973;DHT22;10645;52.370;13.314;2022-12-29T08:28:54;10.30;99.90
20973;DHT22;10645;52.370;13.314;2022-12-29T08:31:22;10.30;99.90
20973;DHT22;10645;52.370;13.314;2022-12-29T08:33:48;10.20;99.90
20973;DHT22;10645;52.370;13.314;2022-12-29T08:36:14;10.20;99.90
20973;DHT22;10645;52.370;13.314;2022-12-29T08:38:40;10.20;99.90
20973;DHT22;10645;52.370;13.314;2022-12-29T08:41:06;10.10;99.90
20973;DHT22;10645;52.370;13.314;2022-12-29T08:43:32;10.10;99.90
20973;DHT22;10645;52.370;13.314;2022-12-29T08:45:59;10.10;99.90
20973;DHT22;10645;52.370;13.314;2022-12-29T08:48:25;10.10;99.90
20973;DHT22;10645;52.370;13.314;2022-12-29T08:50:52;10.10;99.90
20973;DHT22;10645;52.370;13.314;2022-12-29T08:53:18;10.20;99.90
20973;DHT22;10645;52.370;13.314;2022-12-29T08:55:55;10.20;99.90
20973;DHT22;10645;52.370;13.314;2022-12-29T08:58:21;10.20;99.90
20973;DHT22;10645;52.370;13.314;2022-12-29T09:00:47;10.20;99.90
20973;DHT22;10645;52.370;13.314;2022-12-29T09:03:14;10.30;99.90
20973;DHT22;10645;52.370;13.314;2022-12-29T09:05:40;10.30;99.90
20973;DHT22;10645;52.370;13.314;2022-12-29T09:08:06;10.30;99.90
20973;DHT22;10645;52.370;13.314;2022-12-29T09:10:32;10.30;99.90
20973;DHT22;10645;52.370;13.314;2022-12-29T09:12:58;10.40;99.90
20973;DHT22;10645;52.370;13.314;2022-12-29T09:15:24;10.50;99.90
20973;DHT22;10645;52.370;13.314;2022-12-29T09:17:50;10.50;99.90
20973;DHT22;10645;52.370;13.314;2022-12-29T09:20:18;10.50;99.90
20973;DHT22;10645;52.370;13.314;2022-12-29T09:22:45;10.60;99.90
20973;DHT22;10645;52.370;13.314;2022-12-29T09:25:12;10.50;99.90
20973;DHT22;10645;52.370;13.314;2022-12-29T09:27:39;10.50;99.90
20973;DHT22;10645;52.370;13.314;2022-12-29T09:30:07;10.60;99.90
20973;DHT22;10645;52.370;13.314;2022-12-29T09:32:34;10.70;99.90
20973;DHT22;10645;52.370;13.314;2022-12-29T09:35:00;10.80;99.90
20973;DHT22;10645;52.370;13.314;2022-12-29T09:37:27;10.90;99.90
20973;DHT22;10645;52.370;13.314;2022-12-29T09:39:53;11.00;99.90
20973;DHT22;10645;52.370;13.314;2022-12-29T09:42:25;11.00;99.90
20973;DHT22;10645;52.370;13.314;2022-12-29T09:45:10;11.00;99.90
20973;DHT22;10645;52.370;13.314;2022-12-29T09:47:38;11.20;99.90
20973;DHT22;10645;52.370;13.314;2022-12-29T09:50:26;11.30;99.90
20973;DHT22;10645;52.370;13.314;2022-12-29T09:53:01;11.50;99.90
20973;DHT22;10645;52.370;13.314;2022-12-29T09:55:38;11.60;99.90
20973;DHT22;10645;52.370;13.314;2022-12-29T10:01:44;11.80;99.90
20973;DHT22;10645;52.370;13.314;2022-12-29T10:04:12;11.90;99.90
20973;DHT22;10645;52.370;13.314;2022-12-29T10:09:25;12.00;99.90
20973;DHT22;10645;52.370;13.314;2022-12-29T10:12:17;12.10;99.90
20973;DHT22;10645;52.370;13.314;2022-12-29T10:18:08;12.30;99.90
20973;DHT22;10645;52.370;13.314;2022-12-29T10:20:58;12.30;99.90
20973;DHT22;10645;52.370;13.314;2022-12-29T10:23:40;12.30;99.90
20973;DHT22;10645;52.370;13.314;2022-12-29T10:26:17;12.20;99.90
20973;DHT22;10645;52.370;13.314;2022-12-29T10:28:52;12.20;99.90
20973;DHT22;10645;52.370;13.314;2022-12-29T10:31:24;12.20;99.90
20973;DHT22;10645;52.370;13.314;2022-12-29T10:34:03;12.30;99.90
20973;DHT22;10645;52.370;13.314;2022-12-29T10:36:43;12.30;99.90
20973;DHT22;10645;52.370;13.314;2022-12-29T10:39:41;12.40;99.90
20973;DHT22;10645;52.370;13.314;2022-12-29T10:42:36;12.30;99.90
20973;DHT22;10645;52.370;13.314;2022-12-29T10:45:04;12.40;99.90
20973;DHT22;10645;52.370;13.314;2022-12-29T10:47:38;12.50;99.90
20973;DHT22;10645;52.370;13.314;2022-12-29T10:50:12;12.50;99.90
20973;DHT22;10645;52.370;13.314;2022-12-29T10:52:39;12.60;99.90
20973;DHT22;10645;52.370;13.314;2022-12-29T10:55:13;12.60;99.90
20973;DHT22;10645;52.370;13.314;2022-12-29T10:57:43;12.60;99.90
20973;DHT22;10645;52.370;13.314;2022-12-29T11:00:18;12.50;99.90
20973;DHT22;10645;52.370;13.314;2022-12-29T11:05:41;12.40;99.90
20973;DHT22;10645;52.370;13.314;2022-12-29T11:08:15;12.40;99.90
20973;DHT22;10645;52.370;13.314;2022-12-29T11:10:44;12.30;99.90
20973;DHT22;10645;52.370;13.314;2022-12-29T11:15:43;12.30;99.90
20973;DHT22;10645;52.370;13.314;2022-12-29T11:18:27;12.20;99.90
20973;DHT22;10645;52.370;13.314;2022-12-29T11:20:59;12.10;99.90
20973;DHT22;10645;52.370;13.314;2022-12-29T11:28:39;11.60;99.90
20973;DHT22;10645;52.370;13.314;2022-12-29T11:31:07;11.50;99.90
20973;DHT22;10645;52.370;13.314;2022-12-29T11:33:38;11.40;99.90
20973;DHT22;10645;52.370;13.314;2022-12-29T11:38:40;11.10;99.90
20973;DHT22;10645;52.370;13.314;2022-12-29T11:41:11;11.00;99.90
20973;DHT22;10645;52.370;13.314;2022-12-29T11:43:40;10.80;99.90
20973;DHT22;10645;52.370;13.314;2022-12-29T11:46:17;10.70;99.90
20973;DHT22;10645;52.370;13.314;2022-12-29T11:48:43;10.60;99.90
20973;DHT22;10645;52.370;13.314;2022-12-29T11:51:11;10.60;99.90
20973;DHT22;10645;52.370;13.314;2022-12-29T11:53:50;10.50;99.90
20973;DHT22;10645;52.370;13.314;2022-12-29T11:56:21;10.50;99.90
20973;DHT22;10645;52.370;13.314;2022-12-29T11:58:50;10.50;99.90
20973;DHT22;10645;52.370;13.314;2022-12-29T12:01:34;10.40;99.90
20973;DHT22;10645;52.370;13.314;2022-12-29T12:04:14;10.40;99.90
20973;DHT22;10645;52.370;13.314;2022-12-29T12:06:47;10.40;99.90
20973;DHT22;10645;52.370;13.314;2022-12-29T12:09:19;10.40;99.90
20973;DHT22;10645;52.370;13.314;2022-12-29T12:11:52;10.30;99.90
20973;DHT22;10645;52.370;13.314;2022-12-29T12:14:27;10.20;99.90
20973;DHT22;10645;52.370;13.314;2022-12-29T12:17:23;10.10;99.90
20973;DHT22;10645;52.370;13.314;2022-12-29T12:20:00;10.00;99.90
20973;DHT22;10645;52.370;13.314;2022-12-29T12:22:34;10.00;99.90
20973;DHT22;10645;52.370;13.314;2022-12-29T12:25:08;9.90;99.90
20973;DHT22;10645;52.370;13.314;2022-12-29T12:28:00;9.90;99.90
20973;DHT22;10645;52.370;13.314;2022-12-29T12:30:34;9.80;99.90
20973;DHT22;10645;52.370;13.314;2022-12-29T12:33:24;9.80;99.90
20973;DHT22;10645;52.370;13.314;2022-12-29T12:38:55;9.80;99.90
20973;DHT22;10645;52.370;13.314;2022-12-29T12:41:50;9.80;99.90
20973;DHT22;10645;52.370;13.314;2022-12-29T12:44:29;9.80;99.90
20973;DHT22;10645;52.370;13.314;2022-12-29T12:52:26;9.90;99.90
20973;DHT22;10645;52.370;13.314;2022-12-29T12:55:18;9.90;99.90
20973;DHT22;10645;52.370;13.314;2022-12-29T12:58:08;10.00;99.90
20973;DHT22;10645;52.370;13.314;2022-12-29T13:00:49;10.10;99.90
20973;DHT22;10645;52.370;13.314;2022-12-29T13:03:53;10.10;99.90
20973;DHT22;10645;52.370;13.314;2022-12-29T13:06:44;10.00;99.90
20973;DHT22;10645;52.370;13.314;2022-12-29T13:09:45;10.00;99.90
20973;DHT22;10645;52.370;13.314;2022-12-29T13:15:13;10.20;99.90
20973;DHT22;10645;52.370;13.314;2022-12-29T13:18:07;10.10;99.90
20973;DHT22;10645;52.370;13.314;2022-12-29T13:20:53;10.10;99.90
20973;DHT22;10645;52.370;13.314;2022-12-29T13:23:30;10.00;99.90
20973;DHT22;10645;52.370;13.314;2022-12-29T13:26:14;10.00;99.90
20973;DHT22;10645;52.370;13.314;2022-12-29T13:28:54;9.90;99.90
20973;DHT22;10645;52.370;13.314;2022-12-29T13:31:33;9.90;99.90
20973;DHT22;10645;52.370;13.314;2022-12-29T13:36:58;9.70;99.90
20973;DHT22;10645;52.370;13.314;2022-12-29T13:39:32;9.70;99.90
20973;DHT22;10645;52.370;13.314;2022-12-29T13:42:01;9.70;99.90
20973;DHT22;10645;52.370;13.314;2022-12-29T13:44:38;9.60;99.90
20973;DHT22;10645;52.370;13.314;2022-12-29T13:47:18;9.50;99.90
20973;DHT22;10645;52.370;13.314;2022-12-29T13:49:46;9.50;99.90
20973;DHT22;10645;52.370;13.314;2022-12-29T13:52:28;9.40;99.90
20973;DHT22;10645;52.370;13.314;2022-12-29T13:55:29;9.50;99.90
20973;DHT22;10645;52.370;13.314;2022-12-29T13:58:12;9.40;99.90
20973;DHT22;10645;52.370;13.314;2022-12-29T14:00:49;9.40;99.90
20973;DHT22;10645;52.370;13.314;2022-12-29T14:06:25;9.30;99.90
20973;DHT22;10645;52.370;13.314;2022-12-29T14:09:03;9.40;99.90
20973;DHT22;10645;52.370;13.314;2022-12-29T14:11:33;9.30;99.90
20973;DHT22;10645;52.370;13.314;2022-12-29T14:14:21;9.30;99.90
20973;DHT22;10645;52.370;13.314;2022-12-29T14:16:48;9.30;99.90
20973;DHT22;10645;52.370;13.314;2022-12-29T14:19:21;9.30;99.90
20973;DHT22;10645;52.370;13.314;2022-12-29T14:22:02;9.30;99.90
20973;DHT22;10645;52.370;13.314;2022-12-29T14:29:51;9.20;99.90
20973;DHT22;10645;52.370;13.314;2022-12-29T14:34:59;9.20;99.90
20973;DHT22;10645;52.370;13.314;2022-12-29T14:37:36;9.20;99.90
20973;DHT22;10645;52.370;13.314;2022-12-29T14:40:14;9.20;99.90
20973;DHT22;10645;52.370;13.314;2022-12-29T14:42:47;9.10;99.90
20973;DHT22;10645;52.370;13.314;2022-12-29T14:47:50;9.00;99.90
20973;DHT22;10645;52.370;13.314;2022-12-29T14:50:25;9.10;99.90
20973;DHT22;10645;52.370;13.314;2022-12-29T14:53:04;9.00;99.90
20973;DHT22;10645;52.370;13.314;2022-12-29T14:55:40;8.90;99.90
20973;DHT22;10645;52.370;13.314;2022-12-29T15:00:41;8.90;99.90
20973;DHT22;10645;52.370;13.314;2022-12-29T15:03:21;8.70;99.90
20973;DHT22;10645;52.370;13.314;2022-12-29T15:05:58;8.70;99.90
20973;DHT22;10645;52.370;13.314;2022-12-29T15:08:27;8.60;99.90
20973;DHT22;10645;52.370;13.314;2022-12-29T15:11:04;8.70;99.90
20973;DHT22;10645;52.370;13.314;2022-12-29T15:13:34;8.70;99.90
20973;DHT22;10645;52.370;13.314;2022-12-29T15:16:01;8.70;99.90
20973;DHT22;10645;52.370;13.314;2022-12-29T15:18:32;8.70;99.90
20973;DHT22;10645;52.370;13.314;2022-12-29T15:21:04;8.80;99.90
20973;DHT22;10645;52.370;13.314;2022-12-29T15:23:33;8.80;99.90
20973;DHT22;10645;52.370;13.314;2022-12-29T15:26:02;8.80;99.90
20973;DHT22;10645;52.370;13.314;2022-12-29T15:31:06;8.70;99.90
20973;DHT22;10645;52.370;13.314;2022-12-29T15:33:38;8.70;99.90
20973;DHT22;10645;52.370;13.314;2022-12-29T15:36:10;8.60;99.90
20973;DHT22;10645;52.370;13.314;2022-12-29T15:38:37;8.60;99.90
20973;DHT22;10645;52.370;13.314;2022-12-29T15:41:07;8.60;99.90
20973;DHT22;10645;52.370;13.314;2022-12-29T15:43:53;8.60;99.90
20973;DHT22;10645;52.370;13.314;2022-12-29T15:46:21;8.70;99.90
20973;DHT22;10645;52.370;13.314;2022-12-29T15:48:47;8.70;99.90
20973;DHT22;10645;52.370;13.314;2022-12-29T15:51:20;8.70;99.90
20973;DHT22;10645;52.370;13.314;2022-12-29T15:53:48;8.80;99.90
20973;DHT22;10645;52.370;13.314;2022-12-29T15:56:15;8.80;99.90
20973;DHT22;10645;52.370;13.314;2022-12-29T15:58:44;9.00;99.90
20973;DHT22;10645;52.370;13.314;2022-12-29T16:01:18;9.10;99.90
20973;DHT22;10645;52.370;13.314;2022-12-29T16:03:45;9.20;99.90
20973;DHT22;10645;52.370;13.314;2022-12-29T16:06:32;9.30;99.90
20973;DHT22;10645;52.370;13.314;2022-12-29T16:09:04;9.30;99.90
20973;DHT22;10645;52.370;13.314;2022-12-29T16:11:37;9.30;99.90
20973;DHT22;10645;52.370;13.314;2022-12-29T16:14:14;9.30;99.90
20973;DHT22;10645;52.370;13.314;2022-12-29T16:16:43;9.40;99.90
20973;DHT22;10645;52.370;13.314;2022-12-29T16:19:21;9.40;99.90
20973;DHT22;10645;52.370;13.314;2022-12-29T16:21:48;9.40;99.90
20973;DHT22;10645;52.370;13.314;2022-12-29T16:24:23;9.40;99.90
20973;DHT22;10645;52.370;13.314;2022-12-29T16:27:19;9.40;99.90
20973;DHT22;10645;52.370;13.314;2022-12-29T16:29:49;9.30;99.90
20973;DHT22;10645;52.370;13.314;2022-12-29T16:32:27;9.30;99.90
20973;DHT22;10645;52.370;13.314;2022-12-29T16:35:16;9.30;99.90
20973;DHT22;10645;52.370;13.314;2022-12-29T16:37:43;9.40;99.90
20973;DHT22;10645;52.370;13.314;2022-12-29T16:40:24;9.30;99.90
20973;DHT22;10645;52.370;13.314;2022-12-29T16:42:58;9.40;99.90
20973;DHT22;10645;52.370;13.314;2022-12-29T16:48:36;9.40;99.90
20973;DHT22;10645;52.370;13.314;2022-12-29T16:51:21;9.30;99.90
20973;DHT22;10645;52.370;13.314;2022-12-29T16:53:51;9.20;99.90
20973;DHT22;10645;52.370;13.314;2022-12-29T16:56:21;9.20;99.90
20973;DHT22;10645;52.370;13.314;2022-12-29T16:58:51;9.10;99.90
20973;DHT22;10645;52.370;13.314;2022-12-29T17:01:20;9.00;99.90
20973;DHT22;10645;52.370;13.314;2022-12-29T17:03:52;9.00;99.90
20973;DHT22;10645;52.370;13.314;2022-12-29T17:06:21;9.00;99.90
20973;DHT22;10645;52.370;13.314;2022-12-29T17:08:48;9.10;99.90
20973;DHT22;10645;52.370;13.314;2022-12-29T17:11:24;9.10;99.90
20973;DHT22;10645;52.370;13.314;2022-12-29T17:16:47;9.20;99.90
20973;DHT22;10645;52.370;13.314;2022-12-29T17:19:24;9.30;99.90